Appleton, Idaho
Current Conditions -  °F | °C
As of 12:53 AM on Saturday 22 Nov 2014 (Local Time) from KJER Reporting Station
Overcast Overcast  
Wind Chill: 30°   Ceiling: 3700
Heat Index: 37°   Visibility: 10mi
Dew Point: 32°   Wind: 9mph
Humidity: 82%   Direction: 20°NNE
Pressure: 29.87"   Gusts: NA
Location:  42.7238°N, 114.338°W
Report Text: KJER 220753Z AUTO 02008KT 10SM OVC037 03/00 A2987 RMK AO2 RAE01B22E50UPB01E08 SLP121 P0000 T00280000
Loading
Personal Weather Stations






























Interactive Weather Map New forecast layout! Learn more

10-Day Weather Forecast

Advertisements
Track Severe Weather on mobile